Time;durP1;ratioP1;P1;durP2;ratioP2;P2;SDS_P1;SDS_P2;PMS_P1;PMS_P2;Temp;Humidity;BMP_temperature;BMP_pressure;BME280_temperature;BME280_humidity;BME280_pressure;Samples;Min_cycle;Max_cycle;Signal;HPM_P1;HPM_P2
2022/06/29 00:02:25;;;;;;;3.80;1.50;;;;;;;14.22;70.14;101093.58;107747;1281;73064;-86
2022/06/29 00:04:55;;;;;;;3.40;1.60;;;;;;;14.20;70.27;101092.04;107766;1281;60914;-88
2022/06/29 00:07:22;;;;;;;2.90;1.60;;;;;;;14.18;70.53;101089.25;107713;1281;60786;-86
2022/06/29 00:09:49;;;;;;;3.70;1.90;;;;;;;14.16;70.96;101087.87;107749;1281;75791;-86
2022/06/29 00:12:16;;;;;;;5.00;2.60;;;;;;;14.14;70.74;101084.87;108004;1281;71396;-87
2022/06/29 00:14:43;;;;;;;3.40;2.20;;;;;;;14.12;70.67;101083.20;108341;1281;74519;-86
2022/06/29 00:17:17;;;;;;;8.00;3.50;;;;;;;14.10;70.83;101089.67;108247;1281;62351;-86
2022/06/29 00:19:44;;;;;;;5.00;1.70;;;;;;;14.07;70.60;101088.36;107810;1281;61029;-86
2022/06/29 00:22:12;;;;;;;3.80;2.00;;;;;;;14.05;70.81;101091.37;107699;1280;74228;-86
2022/06/29 00:24:39;;;;;;;2.90;1.50;;;;;;;14.02;70.85;101092.95;107713;1281;71531;-86
2022/06/29 00:27:06;;;;;;;6.60;2.20;;;;;;;14.00;71.15;101089.42;107706;1281;74244;-86
2022/06/29 00:29:33;;;;;;;2.40;2.10;;;;;;;13.98;70.92;101088.38;107725;1281;63073;-86
2022/06/29 00:32:00;;;;;;;3.80;1.70;;;;;;;13.95;71.03;101090.24;107796;1281;59393;-86
2022/06/29 00:34:27;;;;;;;5.00;1.90;;;;;;;13.92;71.00;101089.91;107661;1281;74581;-87
2022/06/29 00:36:55;;;;;;;4.10;1.80;;;;;;;13.89;71.20;101089.02;107799;1281;72280;-87
2022/06/29 00:39:22;;;;;;;2.60;1.90;;;;;;;13.87;71.27;101088.70;107576;1283;73117;-86
2022/06/29 00:41:49;;;;;;;4.20;1.90;;;;;;;13.85;71.27;101088.23;107631;1282;62506;-86
2022/06/29 00:44:18;;;;;;;5.40;1.60;;;;;;;13.82;71.60;101088.09;107785;1281;59546;-86
2022/06/29 00:46:55;;;;;;;2.30;1.40;;;;;;;13.79;71.58;101085.98;107779;1279;75975;-86
2022/06/29 00:49:23;;;;;;;2.70;1.70;;;;;;;13.75;71.71;101083.64;107567;1283;70899;-86
2022/06/29 00:52:01;;;;;;;3.70;1.70;;;;;;;13.71;72.01;101079.32;107732;1281;72607;-86
2022/06/29 00:54:53;;;;;;;2.90;1.60;;;;;;;13.67;72.25;101078.04;107753;1281;62320;-86
2022/06/29 00:57:24;;;;;;;3.10;1.90;;;;;;;13.61;72.48;101078.00;107257;1284;60793;-86
2022/06/29 00:59:53;;;;;;;2.30;1.40;;;;;;;13.57;72.65;101080.15;107667;1281;73670;-86
2022/06/29 01:02:23;;;;;;;3.10;1.70;;;;;;;13.53;72.64;101080.11;107672;1281;72528;-86
2022/06/29 01:04:51;;;;;;;3.20;1.40;;;;;;;13.47;72.97;101080.94;107647;1281;75184;-87
2022/06/29 01:07:22;;;;;;;3.30;1.80;;;;;;;13.42;73.19;101083.63;107877;1281;62186;-86
2022/06/29 01:09:49;;;;;;;4.20;1.80;;;;;;;13.38;73.51;101081.31;108228;1279;60787;-86
2022/06/29 01:12:16;;;;;;;4.90;1.90;;;;;;;13.33;73.70;101080.24;108242;1281;74118;-86
2022/06/29 01:14:44;;;;;;;2.60;1.50;;;;;;;13.30;73.99;101078.90;108232;1281;70445;-86
2022/06/29 01:17:12;;;;;;;4.00;1.90;;;;;;;13.27;73.93;101077.52;108001;1281;72859;-86
2022/06/29 01:19:40;;;;;;;3.60;2.30;;;;;;;13.24;74.19;101081.77;107983;1281;350699;-87
2022/06/29 01:22:12;;;;;;;3.30;1.80;;;;;;;13.19;74.18;101077.57;108230;1281;60320;-87
2022/06/29 01:24:41;;;;;;;3.30;2.20;;;;;;;13.15;74.42;101071.69;108044;1281;74641;-87
2022/06/29 01:27:08;;;;;;;2.30;1.60;;;;;;;13.11;74.72;101068.75;107870;1281;71452;-87
2022/06/29 01:29:35;;;;;;;4.10;1.90;;;;;;;13.07;74.98;101066.69;107762;1281;72864;-87
2022/06/29 01:32:02;;;;;;;3.00;1.70;;;;;;;13.04;75.02;101067.41;107576;1281;63221;-86
2022/06/29 01:34:31;;;;;;;4.40;1.90;;;;;;;13.00;75.39;101063.26;107723;1281;59851;-86
2022/06/29 01:36:59;;;;;;;5.00;1.80;;;;;;;12.97;75.50;101066.30;107688;1281;74327;-86
2022/06/29 01:39:27;;;;;;;4.10;2.00;;;;;;;12.93;75.64;101064.23;107490;1281;71573;-86
2022/06/29 01:41:54;;;;;;;3.00;1.90;;;;;;;12.90;75.96;101071.31;107477;1282;71745;-87
2022/06/29 01:44:21;;;;;;;3.40;1.80;;;;;;;12.88;75.95;101063.12;107637;1281;63310;-87
2022/06/29 01:46:48;;;;;;;2.70;2.00;;;;;;;12.86;75.82;101061.90;107492;1281;61345;-87
2022/06/29 01:49:16;;;;;;;3.20;2.10;;;;;;;12.82;75.88;101050.48;107709;1281;74083;-86
2022/06/29 01:51:43;;;;;;;3.20;2.00;;;;;;;12.83;75.82;101048.71;107420;1284;71088;-86
2022/06/29 01:54:11;;;;;;;4.10;2.10;;;;;;;12.83;75.70;101049.67;107702;1281;74163;-86
2022/06/29 01:56:38;;;;;;;2.90;1.80;;;;;;;12.82;75.70;101050.86;107614;1280;62286;-87
2022/06/29 01:59:05;;;;;;;3.00;1.70;;;;;;;12.81;75.41;101047.74;107516;1281;60621;-86
2022/06/29 02:01:32;;;;;;;2.20;1.70;;;;;;;12.79;75.53;101049.35;107503;1281;74762;-87
2022/06/29 02:03:59;;;;;;;3.20;1.90;;;;;;;12.79;75.69;101045.46;107694;1281;71314;-86
2022/06/29 02:06:27;;;;;;;2.80;2.20;;;;;;;12.79;75.75;101045.58;107451;1282;72755;-86
2022/06/29 02:08:53;;;;;;;2.30;1.60;;;;;;;12.79;75.57;101043.41;107509;1281;62525;-87
2022/06/29 02:11:21;;;;;;;4.60;2.10;;;;;;;12.78;75.46;101043.10;107700;1281;60456;-86
2022/06/29 02:13:48;;;;;;;2.20;1.70;;;;;;;12.78;75.46;101041.02;107484;1281;75394;-87
2022/06/29 02:16:15;;;;;;;2.80;1.80;;;;;;;12.78;75.49;101036.96;107403;1282;71400;-86
2022/06/29 02:18:43;;;;;;;2.30;1.80;;;;;;;12.77;75.90;101037.36;107489;1281;73000;-86
2022/06/29 02:21:10;;;;;;;3.80;1.70;;;;;;;12.75;75.99;101030.06;107511;1282;61203;-86
2022/06/29 02:23:37;;;;;;;3.60;1.80;;;;;;;12.73;76.10;101021.86;107701;1281;61601;-86
2022/06/29 02:26:10;;;;;;;2.30;1.60;;;;;;;12.74;76.13;101017.36;107460;1283;75279;-86
2022/06/29 02:28:37;;;;;;;3.00;1.70;;;;;;;12.75;75.86;101019.75;107612;1281;72531;-86
2022/06/29 02:36:42;;;;;;;4.00;1.90;;;;;;;12.79;75.93;101025.36;107522;1281;61405;-86
2022/06/29 02:39:08;;;;;;;2.50;1.70;;;;;;;12.81;75.72;101027.70;107454;1283;74178;-86
2022/06/29 02:41:36;;;;;;;3.40;1.80;;;;;;;12.82;75.57;101024.94;107422;1284;71674;-86
2022/06/29 02:44:03;;;;;;;2.40;1.70;;;;;;;12.82;75.66;101014.75;107660;1279;73194;-86
2022/06/29 02:46:30;;;;;;;2.90;2.60;;;;;;;12.84;75.92;101014.36;107660;1281;61292;-85
2022/06/29 02:48:58;;;;;;;5.40;2.20;;;;;;;12.86;75.76;101018.61;107706;1281;61935;-86
2022/06/29 02:51:25;;;;;;;3.60;2.00;;;;;;;12.87;75.75;101017.73;107666;1281;75217;-86
2022/06/29 02:53:53;;;;;;;2.80;1.90;;;;;;;12.90;75.77;101016.58;107512;1282;71447;-86
2022/06/29 02:56:20;;;;;;;3.30;1.80;;;;;;;12.92;75.70;101013.91;107665;1281;74279;-86
2022/06/29 02:58:47;;;;;;;4.20;2.20;;;;;;;12.95;75.81;101008.77;107687;1282;62015;-86
2022/06/29 03:01:14;;;;;;;3.10;1.90;;;;;;;12.99;75.75;101006.05;107674;1280;61901;-86
2022/06/29 03:03:41;;;;;;;6.30;2.00;;;;;;;13.01;75.71;101004.70;107499;1282;75154;-86
2022/06/29 03:06:08;;;;;;;2.40;1.90;;;;;;;13.03;75.71;101004.64;107679;1281;72002;-85
2022/06/29 03:08:35;;;;;;;2.70;1.90;;;;;;;13.04;75.80;101010.05;107527;1281;72945;-86
2022/06/29 03:11:02;;;;;;;3.90;2.20;;;;;;;13.04;75.87;101003.27;107673;1281;63473;-86
2022/06/29 03:13:39;;;;;;;4.60;2.30;;;;;;;13.03;75.68;101006.37;107652;1281;60396;-86
2022/06/29 03:16:09;;;;;;;3.40;2.40;;;;;;;13.03;75.75;101012.77;107703;1281;75500;-86
2022/06/29 03:18:37;;;;;;;2.80;2.00;;;;;;;13.02;75.89;101008.60;107720;1281;72590;-86
2022/06/29 03:21:08;;;;;;;3.80;2.10;;;;;;;13.03;75.89;101003.77;107750;1281;73505;-87
2022/06/29 03:23:35;;;;;;;6.80;2.20;;;;;;;13.04;75.97;101001.16;107723;1281;63012;-87
2022/06/29 03:26:02;;;;;;;4.90;2.30;;;;;;;13.05;76.04;100996.19;107553;1281;60639;-87
2022/06/29 03:28:29;;;;;;;4.60;2.30;;;;;;;13.09;76.24;101000.78;107494;1281;73178;-87
2022/06/29 03:30:56;;;;;;;8.20;2.30;;;;;;;13.12;76.12;101001.16;107591;1281;71234;-87
2022/06/29 03:33:23;;;;;;;5.70;2.50;;;;;;;13.14;76.14;101000.98;107593;1281;72261;-87
2022/06/29 03:35:51;;;;;;;4.00;2.40;;;;;;;13.19;76.13;100998.75;107742;1281;63288;-87
2022/06/29 03:38:18;;;;;;;2.80;1.90;;;;;;;13.22;76.34;100997.09;107718;1281;59665;-88
2022/06/29 03:40:46;;;;;;;5.30;2.00;;;;;;;13.27;76.35;100992.02;107736;1281;74993;-87
2022/06/29 03:43:13;;;;;;;4.70;2.30;;;;;;;13.31;76.21;100995.30;107747;1280;72165;-87
2022/06/29 03:45:40;;;;;;;4.90;2.30;;;;;;;13.36;76.16;100989.58;107712;1281;73036;-87
2022/06/29 03:48:07;;;;;;;4.80;2.40;;;;;;;13.41;76.15;100992.34;107668;1281;61464;-88
2022/06/29 03:50:34;;;;;;;3.80;2.10;;;;;;;13.47;76.16;100996.23;107845;1280;61688;-87
2022/06/29 03:53:01;;;;;;;4.00;2.30;;;;;;;13.52;76.13;100993.45;107622;1282;75368;-87
2022/06/29 03:55:28;;;;;;;3.70;1.90;;;;;;;13.58;75.94;100992.09;107716;1281;72394;-87
2022/06/29 03:57:56;;;;;;;2.80;2.30;;;;;;;13.62;75.91;100988.29;107736;1281;74356;-88
2022/06/29 04:00:23;;;;;;;3.00;2.30;;;;;;;13.67;75.87;100986.99;107740;1281;62463;-88
2022/06/29 04:02:49;;;;;;;3.20;2.00;;;;;;;13.73;75.68;100988.64;107641;1281;58459;-87
2022/06/29 04:05:17;;;;;;;3.60;2.20;;;;;;;13.79;75.71;100987.90;107659;1281;76064;-88
2022/06/29 04:07:44;;;;;;;3.50;2.60;;;;;;;13.84;75.75;100991.89;107719;1281;73531;-88
2022/06/29 04:10:11;;;;;;;5.20;2.30;;;;;;;13.91;75.61;100995.48;107759;1281;73175;-87
2022/06/29 04:12:38;;;;;;;5.80;1.80;;;;;;;13.98;75.44;100999.12;107552;1281;62104;-87
2022/06/29 04:15:06;;;;;;;4.60;2.40;;;;;;;14.03;75.30;101000.90;107817;1281;60605;-87
2022/06/29 04:17:33;;;;;;;7.00;2.00;;;;;;;14.10;75.37;101010.54;107788;1281;73865;-88
2022/06/29 04:20:01;;;;;;;3.80;2.00;;;;;;;14.17;75.37;101015.92;107675;1282;71485;-88
2022/06/29 04:22:28;;;;;;;5.20;2.10;;;;;;;14.22;75.19;101013.20;107570;1281;74193;-87
2022/06/29 04:24:56;;;;;;;2.90;2.00;;;;;;;14.28;75.20;101014.02;107504;1281;62099;-86
2022/06/29 04:27:23;;;;;;;2.70;2.30;;;;;;;14.35;75.27;101012.61;107721;1281;61920;-87
2022/06/29 04:29:50;;;;;;;2.60;1.90;;;;;;;14.46;75.03;101008.02;107749;1280;75181;-87
2022/06/29 04:32:17;;;;;;;3.30;1.80;;;;;;;14.56;74.92;101005.30;107624;1281;72201;-88
2022/06/29 04:34:44;;;;;;;2.50;1.60;;;;;;;14.70;75.14;100999.29;107713;1281;72958;-88
2022/06/29 04:37:11;;;;;;;3.80;1.90;;;;;;;14.86;74.72;101001.73;107637;1281;64753;-87
2022/06/29 04:39:38;;;;;;;2.50;1.70;;;;;;;15.00;74.11;101008.65;107664;1281;60516;-88
2022/06/29 04:42:05;;;;;;;3.60;1.80;;;;;;;15.13;73.70;101007.94;107768;1281;74242;-87
2022/06/29 04:44:32;;;;;;;3.30;1.80;;;;;;;15.22;73.39;100999.27;107641;1281;72566;-87
2022/06/29 04:46:59;;;;;;;3.20;2.20;;;;;;;15.31;73.10;100997.71;107529;1281;76318;-87
2022/06/29 04:49:26;;;;;;;3.80;2.00;;;;;;;15.42;72.79;100999.69;107713;1281;62579;-87
2022/06/29 04:51:53;;;;;;;4.60;1.70;;;;;;;15.50;72.38;101004.70;107745;1281;60615;-87
2022/06/29 04:54:20;;;;;;;6.00;2.20;;;;;;;15.58;72.11;101005.39;107842;1281;73987;-87
2022/06/29 04:56:47;;;;;;;5.00;2.60;;;;;;;15.67;71.69;101003.45;107672;1281;72044;-87
2022/06/29 04:59:15;;;;;;;2.60;2.10;;;;;;;15.83;71.07;101005.63;107627;1280;73931;-87
2022/06/29 05:01:43;;;;;;;5.70;2.40;;;;;;;16.02;70.55;101006.36;107653;1281;62319;-88
2022/06/29 05:04:10;;;;;;;3.20;2.10;;;;;;;16.19;69.88;101005.31;107648;1281;61991;-87
2022/06/29 05:06:37;;;;;;;4.00;2.10;;;;;;;16.39;69.44;101001.49;107511;1282;74269;-87
2022/06/29 05:09:05;;;;;;;3.60;2.00;;;;;;;16.57;68.80;101000.13;107530;1281;71426;-88
2022/06/29 05:14:13;;;;;;;4.50;2.20;;;;;;;16.92;67.53;101009.11;107942;1279;63034;-81
2022/06/29 05:16:47;;;;;;;6.20;2.50;;;;;;;17.10;67.16;101003.33;107793;1278;60581;-82
2022/06/29 05:19:15;;;;;;;4.50;2.10;;;;;;;17.32;66.47;101002.31;107849;1279;74144;-82
2022/06/29 05:21:42;;;;;;;4.00;2.20;;;;;;;17.52;65.98;100996.99;107890;1279;72495;-82
2022/06/29 05:24:09;;;;;;;4.40;2.10;;;;;;;17.73;64.80;100990.36;107798;1279;73964;-82
2022/06/29 05:26:37;;;;;;;4.20;2.00;;;;;;;17.90;63.87;100993.59;107929;1279;62780;-80
2022/06/29 05:29:05;;;;;;;4.90;2.00;;;;;;;18.08;63.71;100992.36;107854;1279;60356;-80
2022/06/29 05:31:32;;;;;;;4.10;2.00;;;;;;;18.28;63.37;100987.95;107909;1279;74299;-80
2022/06/29 05:33:59;;;;;;;4.70;2.10;;;;;;;18.46;62.62;100984.95;107972;1279;71393;-80
2022/06/29 05:36:27;;;;;;;5.70;2.30;;;;;;;18.69;62.41;100986.24;107703;1279;72817;-80
2022/06/29 05:38:54;;;;;;;4.10;2.20;;;;;;;18.93;61.55;100984.38;108026;1277;62442;-80
2022/06/29 05:41:21;;;;;;;4.80;1.90;;;;;;;19.13;60.85;100981.50;107767;1279;61105;-80
2022/06/29 05:43:51;;;;;;;3.60;2.00;;;;;;;19.32;59.67;100982.32;107888;1278;74117;-80
2022/06/29 05:46:19;;;;;;;4.80;1.90;;;;;;;19.43;58.81;100973.48;107972;1278;71385;-80
2022/06/29 05:48:46;;;;;;;6.40;2.00;;;;;;;19.51;58.51;100972.27;107984;1278;74045;-80
2022/06/29 05:51:14;;;;;;;4.40;1.90;;;;;;;19.62;58.25;100972.33;107895;1279;62117;-88
2022/06/29 05:53:42;;;;;;;4.90;3.20;;;;;;;19.73;58.03;100974.23;107947;1279;60866;-87
2022/06/29 05:56:09;;;;;;;4.80;2.20;;;;;;;19.82;57.61;100975.10;107919;1279;75629;-87
2022/06/29 05:58:36;;;;;;;3.30;2.00;;;;;;;19.92;57.05;100972.13;107783;1280;71732;-86
2022/06/29 06:01:10;;;;;;;2.70;1.90;;;;;;;19.95;56.78;100969.14;107634;1281;74038;-86
2022/06/29 06:03:40;;;;;;;5.00;1.80;;;;;;;20.01;57.00;100969.37;107657;1279;59496;-86
2022/06/29 06:06:10;;;;;;;5.00;2.30;;;;;;;20.10;57.13;100968.33;107945;1279;60393;-85
2022/06/29 06:08:38;;;;;;;5.90;2.40;;;;;;;20.22;57.39;100967.64;107594;1281;75606;-86
2022/06/29 06:11:10;;;;;;;3.90;2.20;;;;;;;20.30;57.38;100960.58;107881;1279;70955;-85
2022/06/29 06:13:37;;;;;;;3.80;2.10;;;;;;;20.46;57.43;100961.04;107913;1281;75471;-85
2022/06/29 06:16:11;;;;;;;5.30;2.30;;;;;;;20.57;57.34;100958.61;108190;1280;60750;-85
2022/06/29 06:18:58;;;;;;;3.50;2.40;;;;;;;20.70;57.14;100959.61;108398;1279;61797;-86
2022/06/29 06:21:25;;;;;;;5.30;2.50;;;;;;;20.79;57.41;100956.48;108341;1279;74558;-86
2022/06/29 06:23:52;;;;;;;4.60;2.80;;;;;;;20.86;57.43;100956.79;108147;1280;71788;-84
2022/06/29 06:26:20;;;;;;;3.40;2.10;;;;;;;20.95;57.47;100955.70;108291;1278;71617;-86
2022/06/29 06:28:47;;;;;;;3.10;2.50;;;;;;;21.08;57.38;100954.17;108264;1279;60922;-86
2022/06/29 06:31:20;;;;;;;4.50;2.30;;;;;;;21.21;57.10;100947.48;108121;1279;60701;-87
2022/06/29 06:33:48;;;;;;;5.90;2.60;;;;;;;21.44;57.03;100947.63;108047;1279;74234;-88
2022/06/29 06:36:17;;;;;;;19.00;11.50;;;;;;;21.64;56.47;100951.34;107948;1280;72359;-87
2022/06/29 06:38:47;;;;;;;9.70;3.20;;;;;;;21.85;55.84;100957.77;107839;1281;74155;-88
2022/06/29 06:41:22;;;;;;;4.00;2.70;;;;;;;22.04;55.33;100954.77;108049;1279;61777;-88
2022/06/29 06:43:54;;;;;;;4.10;3.10;;;;;;;22.26;54.56;100959.36;107958;1279;61374;-88
2022/06/29 06:46:22;;;;;;;5.50;3.10;;;;;;;22.45;54.45;100958.48;107819;1280;74351;-89
2022/06/29 06:48:55;;;;;;;5.30;2.60;;;;;;;22.62;53.97;100954.55;108136;1279;72250;-89
2022/06/29 06:51:28;;;;;;;3.90;2.40;;;;;;;22.77;53.27;100955.16;108323;1279;73390;-88
2022/06/29 06:53:56;;;;;;;3.10;2.00;;;;;;;22.92;53.32;100954.52;108397;1279;60758;-89
2022/06/29 06:56:23;;;;;;;3.70;2.20;;;;;;;23.04;53.14;100949.85;108092;1281;60953;-85
2022/06/29 06:58:50;;;;;;;5.00;2.20;;;;;;;23.15;52.64;100949.71;107918;1279;74204;-85
2022/06/29 07:01:21;;;;;;;3.00;1.90;;;;;;;23.25;52.52;100952.09;107681;1279;71081;-85
2022/06/29 07:03:49;;;;;;;3.50;2.00;;;;;;;23.29;52.44;100951.49;107710;1278;72958;-87
2022/06/29 07:06:16;;;;;;;3.80;2.20;;;;;;;23.33;52.67;100950.99;107922;1279;60579;-85
2022/06/29 07:08:45;;;;;;;4.60;2.20;;;;;;;23.45;52.62;100951.64;107804;1278;60139;-86
2022/06/29 07:11:14;;;;;;;4.30;2.10;;;;;;;23.55;52.54;100943.32;107630;1280;73598;-86
2022/06/29 07:13:41;;;;;;;3.50;2.20;;;;;;;23.80;52.27;100948.30;107948;1279;69841;-86
2022/06/29 07:16:08;;;;;;;3.90;2.20;;;;;;;24.04;51.90;100950.95;107635;1280;72363;-85
2022/06/29 07:18:35;;;;;;;3.90;2.10;;;;;;;24.22;51.59;100946.36;107906;1278;61885;-87
2022/06/29 07:21:02;;;;;;;4.30;2.00;;;;;;;24.38;51.07;100944.58;107933;1279;62178;-87
2022/06/29 07:23:29;;;;;;;4.80;2.10;;;;;;;24.49;50.99;100941.04;107711;1281;74226;-87
2022/06/29 07:25:56;;;;;;;2.60;1.70;;;;;;;24.60;50.96;100942.90;107883;1279;71475;-87
2022/06/29 07:28:23;;;;;;;3.30;1.70;;;;;;;24.62;50.81;100942.27;107847;1279;73751;-86
2022/06/29 07:30:51;;;;;;;4.80;2.10;;;;;;;24.67;50.75;100942.83;107938;1278;60993;-85
2022/06/29 07:33:18;;;;;;;3.50;2.10;;;;;;;24.86;51.69;100942.33;107863;1278;61190;-85
2022/06/29 07:35:45;;;;;;;5.90;2.40;;;;;;;24.98;50.36;100940.54;107928;1278;74250;-86
2022/06/29 07:38:12;;;;;;;4.90;1.90;;;;;;;25.01;50.02;100945.65;107872;1278;72610;-86
2022/06/29 07:40:39;;;;;;;3.60;2.20;;;;;;;24.95;50.29;100944.54;107922;1277;74047;-85
2022/06/29 07:43:06;;;;;;;3.50;2.00;;;;;;;24.90;50.57;100938.70;107712;1280;60437;-85
2022/06/29 07:45:33;;;;;;;3.60;2.00;;;;;;;24.91;50.78;100940.24;107948;1279;60987;-87
2022/06/29 07:48:01;;;;;;;2.70;2.00;;;;;;;24.92;50.53;100940.62;108020;1277;75876;-88
2022/06/29 07:50:27;;;;;;;2.90;1.90;;;;;;;24.90;50.97;100938.38;107991;1277;70818;-86
2022/06/29 07:52:54;;;;;;;4.00;2.10;;;;;;;24.92;50.99;100936.27;107756;1281;73064;-85
2022/06/29 07:55:21;;;;;;;3.70;2.00;;;;;;;25.03;50.80;100938.15;107923;1279;60611;-85
2022/06/29 07:57:50;;;;;;;4.90;2.10;;;;;;;25.19;50.41;100932.92;107941;1279;60143;-87
2022/06/29 08:00:16;;;;;;;3.10;2.00;;;;;;;25.23;50.05;100931.29;107940;1278;75164;-86
2022/06/29 08:02:44;;;;;;;5.00;2.00;;;;;;;25.16;50.21;100927.89;107944;1278;71506;-86
2022/06/29 08:05:11;;;;;;;2.50;1.70;;;;;;;25.28;50.79;100934.20;107669;1279;73511;-87
2022/06/29 08:07:37;;;;;;;2.60;2.10;;;;;;;25.37;50.37;100929.50;107855;1279;60398;-86
2022/06/29 08:10:07;;;;;;;2.40;2.00;;;;;;;25.44;50.62;100927.94;107935;1277;60494;-86
2022/06/29 08:12:35;;;;;;;3.50;2.30;;;;;;;25.53;50.25;100926.76;107933;1279;76924;-86
2022/06/29 08:15:03;;;;;;;2.50;1.90;;;;;;;25.60;49.07;100932.09;107603;1281;71052;-86
2022/06/29 08:17:31;;;;;;;4.80;2.20;;;;;;;25.61;49.00;100931.39;107580;1279;74238;-86
2022/06/29 08:20:01;;;;;;;4.50;2.30;;;;;;;25.64;49.14;100928.58;107664;1279;60674;-86
2022/06/29 08:22:28;;;;;;;5.00;2.20;;;;;;;25.64;49.35;100928.84;107686;1279;59814;-86
2022/06/29 08:24:56;;;;;;;3.90;2.30;;;;;;;25.70;49.05;100926.78;107826;1279;75681;-86
2022/06/29 08:27:23;;;;;;;4.10;2.30;;;;;;;25.89;48.74;100929.04;107891;1278;71477;-86
2022/06/29 08:30:11;;;;;;;4.40;2.00;;;;;;;26.25;47.67;100931.48;107729;1278;73637;-86
2022/06/29 08:32:40;;;;;;;3.80;1.70;;;;;;;26.42;47.02;100930.94;107821;1279;60392;-87
2022/06/29 08:35:07;;;;;;;4.60;2.00;;;;;;;26.48;47.00;100928.38;107748;1279;60355;-87
2022/06/29 08:37:39;;;;;;;2.50;1.90;;;;;;;26.53;46.89;100922.33;107616;1279;73974;-87
2022/06/29 08:40:09;;;;;;;4.20;2.00;;;;;;;26.57;46.90;100921.78;107627;1279;71579;-88
2022/06/29 08:42:37;;;;;;;3.50;1.90;;;;;;;26.57;46.42;100920.31;107851;1279;74370;-88
2022/06/29 08:45:05;;;;;;;3.00;1.70;;;;;;;26.51;46.49;100921.58;107849;1279;61739;-88
2022/06/29 08:47:32;;;;;;;4.70;1.80;;;;;;;26.48;46.01;100925.17;107755;1279;60460;-88
2022/06/29 08:50:03;;;;;;;3.20;2.00;;;;;;;26.54;46.37;100921.78;107867;1279;73144;-88
2022/06/29 08:52:30;;;;;;;3.20;2.10;;;;;;;26.52;46.58;100919.89;107951;1279;71479;-88
2022/06/29 08:54:58;;;;;;;2.60;2.10;;;;;;;26.38;46.64;100918.39;107852;1279;72912;-88
2022/06/29 08:57:25;;;;;;;3.60;1.90;;;;;;;26.22;46.99;100917.71;107869;1279;60881;-88
2022/06/29 08:59:54;;;;;;;2.70;1.80;;;;;;;26.03;47.36;100914.25;107855;1278;61430;-88
2022/06/29 09:02:26;;;;;;;2.90;2.20;;;;;;;25.99;47.97;100917.25;107831;1279;75011;-87
2022/06/29 09:04:54;;;;;;;3.80;2.10;;;;;;;26.10;48.79;100914.63;107878;1279;71438;-87
2022/06/29 09:07:23;;;;;;;4.00;2.30;;;;;;;26.33;48.61;100916.88;107836;1279;74175;-86
2022/06/29 09:10:00;;;;;;;5.90;2.20;;;;;;;26.57;47.69;100913.73;107584;1279;60790;-86
2022/06/29 09:12:28;;;;;;;4.90;2.20;;;;;;;26.78;46.85;100910.46;107702;1279;61403;-86
2022/06/29 09:14:55;;;;;;;3.40;2.40;;;;;;;26.92;46.20;100911.98;107843;1279;73091;-87
2022/06/29 09:17:22;;;;;;;3.70;2.40;;;;;;;27.05;45.71;100914.42;107791;1279;69777;-87
2022/06/29 09:19:49;;;;;;;3.50;2.00;;;;;;;27.20;45.31;100910.54;107902;1279;74855;-86
2022/06/29 09:22:29;;;;;;;3.70;1.90;;;;;;;27.36;44.78;100909.16;107670;1279;61702;-87
2022/06/29 09:24:56;;;;;;;3.70;2.10;;;;;;;27.46;43.51;100912.04;107924;1279;62191;-87
2022/06/29 09:27:44;;;;;;;3.70;2.00;;;;;;;27.49;43.44;100911.09;107765;1279;75008;-86
2022/06/29 09:30:35;;;;;;;3.00;2.00;;;;;;;27.39;43.05;100913.11;107832;1279;72941;-87
2022/06/29 09:33:07;;;;;;;3.10;1.80;;;;;;;27.37;43.26;100911.98;107816;1279;73479;-87
2022/06/29 09:35:36;;;;;;;2.90;1.80;;;;;;;27.51;42.85;100910.41;107634;1279;60598;-87
2022/06/29 09:38:24;;;;;;;3.10;1.80;;;;;;;27.58;42.46;100910.95;107972;1279;60582;-87
2022/06/29 09:41:07;;;;;;;3.70;2.20;;;;;;;27.76;42.71;100909.41;107938;1278;74102;-88
2022/06/29 09:43:39;;;;;;;4.80;2.30;;;;;;;27.79;43.90;100907.27;107921;1278;71608;-87
2022/06/29 09:46:15;;;;;;;3.40;2.40;;;;;;;27.93;43.56;100907.98;107844;1279;72993;-88
2022/06/29 09:48:43;;;;;;;3.40;1.80;;;;;;;28.04;43.40;100904.23;107839;1279;60906;-88
2022/06/29 09:51:30;;;;;;;3.90;1.90;;;;;;;28.07;41.82;100902.17;108040;1277;58861;-88
2022/06/29 09:54:10;;;;;;;2.10;1.70;;;;;;;28.17;41.28;100905.96;107666;1279;75123;-87
2022/06/29 09:56:46;;;;;;;3.70;1.90;;;;;;;28.05;41.52;100897.67;107779;1279;72132;-88
2022/06/29 09:59:23;;;;;;;5.50;2.00;;;;;;;28.11;41.25;100899.05;107902;1277;74056;-88
2022/06/29 10:04:36;;;;;;;3.00;1.80;;;;;;;28.26;41.17;100894.73;107817;1277;60352;-87
2022/06/29 10:07:03;;;;;;;3.40;1.80;;;;;;;28.14;41.66;100891.92;107924;1279;77238;-87
2022/06/29 10:09:30;;;;;;;2.40;1.80;;;;;;;28.18;41.90;100889.54;108058;1279;71515;-88
2022/06/29 10:15:15;;;;;;;6.60;2.40;;;;;;;28.15;42.92;100888.91;107817;1279;62026;-87
2022/06/29 10:17:49;;;;;;;2.80;1.90;;;;;;;28.14;42.37;100890.29;108060;1278;60692;-86
2022/06/29 10:20:38;;;;;;;3.50;1.90;;;;;;;28.21;41.72;100886.33;107802;1279;74235;-88
2022/06/29 10:23:05;;;;;;;3.50;1.90;;;;;;;28.34;42.27;100888.16;107910;1279;70388;-87
2022/06/29 10:25:32;;;;;;;5.80;1.70;;;;;;;28.38;41.14;100883.70;107953;1278;74011;-87
2022/06/29 10:28:10;;;;;;;2.10;1.70;;;;;;;28.36;41.20;100879.25;107853;1279;60889;-88
2022/06/29 10:30:37;;;;;;;3.20;1.80;;;;;;;28.20;41.66;100880.63;107839;1277;61040;-85
2022/06/29 10:33:29;;;;;;;4.50;1.90;;;;;;;28.20;41.99;100884.16;107873;1278;75238;-84
2022/06/29 10:36:20;;;;;;;3.20;1.80;;;;;;;28.28;41.74;100886.59;107956;1277;72952;-84
2022/06/29 10:38:58;;;;;;;4.00;1.50;;;;;;;28.34;40.82;100884.18;107834;1279;72900;-86
2022/06/29 10:44:11;;;;;;;3.30;1.30;;;;;;;28.35;38.90;100882.41;107887;1278;59505;-86
2022/06/29 10:46:57;;;;;;;2.90;1.20;;;;;;;28.31;39.19;100877.92;107949;1277;75895;-85
2022/06/29 10:49:24;;;;;;;3.20;1.40;;;;;;;28.24;37.79;100883.46;107851;1278;72414;-85
2022/06/29 10:51:53;;;;;;;2.40;1.40;;;;;;;28.21;37.90;100880.77;107842;1279;74206;-85
2022/06/29 10:54:27;;;;;;;3.30;1.40;;;;;;;28.27;38.35;100880.65;107853;1279;60779;-89
2022/06/29 10:56:55;;;;;;;2.50;1.50;;;;;;;28.32;39.05;100874.81;107834;1279;61589;-86
2022/06/29 10:59:35;;;;;;;2.50;1.50;;;;;;;28.43;39.28;100869.77;107928;1278;74097;-85
2022/06/29 11:02:13;;;;;;;2.80;1.90;;;;;;;28.40;39.77;100876.64;107870;1279;72451;-86
2022/06/29 11:04:41;;;;;;;2.90;1.80;;;;;;;28.23;40.69;100872.62;107800;1278;73117;-86
2022/06/29 11:12:53;;;;;;;2.20;1.60;;;;;;;28.17;40.86;100868.81;107834;1279;76861;-86
2022/06/29 11:15:40;;;;;;;2.40;1.60;;;;;;;28.31;41.24;100869.65;107864;1279;71121;-86
2022/06/29 11:18:12;;;;;;;5.10;2.30;;;;;;;28.37;41.89;100866.02;108014;1279;73980;-85
2022/06/29 11:20:45;;;;;;;6.00;2.20;;;;;;;28.45;40.86;100863.59;107829;1279;60642;-86
2022/06/29 11:23:27;;;;;;;3.90;2.20;;;;;;;28.52;40.93;100861.52;107941;1277;61638;-86
2022/06/29 11:25:56;;;;;;;3.20;1.80;;;;;;;28.60;40.94;100860.06;107930;1278;73193;-86
2022/06/29 11:28:28;;;;;;;3.60;1.90;;;;;;;28.67;40.85;100853.58;107822;1278;71483;-86
2022/06/29 11:31:11;;;;;;;2.90;2.00;;;;;;;28.80;40.76;100856.20;107818;1279;73921;-88
2022/06/29 11:33:43;;;;;;;2.50;1.60;;;;;;;28.96;40.25;100856.48;107947;1277;61113;-87
2022/06/29 11:36:14;;;;;;;2.40;1.40;;;;;;;29.07;39.93;100848.23;107821;1279;60555;-87
2022/06/29 11:38:43;;;;;;;3.00;1.70;;;;;;;28.91;39.97;100852.38;107535;1279;74972;-87
2022/06/29 11:43:03;;;;;;;2.80;1.90;;;;;;;28.77;40.48;100860.55;107857;1279;72372;-88
2022/06/29 11:44:31;;;;;;;3.00;1.70;;;;;;;28.71;40.26;100862.98;107831;1277;72585;-87
2022/06/29 11:46:58;;;;;;;2.20;1.80;;;;;;;28.57;40.79;100860.43;107903;1277;61699;-87
2022/06/29 11:49:36;;;;;;;2.30;1.50;;;;;;;28.44;40.05;100857.44;107899;1279;59971;-87
2022/06/29 11:52:08;;;;;;;1.90;1.30;;;;;;;28.20;39.23;100860.05;107865;1279;74655;-88